sensor_id;sensor_type;location;lat;lon;timestamp;pressure;altitude;pressure_sealevel;temperature;humidity
46456;BME280;64052;47.466;9.094;2023-02-28T00:00:33;95936.16;;;2.63;53.88
46456;BME280;64052;47.466;9.094;2023-02-28T00:05:35;95947.38;;;2.48;54.13
46456;BME280;64052;47.466;9.094;2023-02-28T00:10:38;95949.56;;;2.56;53.97
46456;BME280;64052;47.466;9.094;2023-02-28T00:15:39;95947.03;;;2.54;54.27
46456;BME280;64052;47.466;9.094;2023-02-28T00:20:41;95950.22;;;2.59;54.17
46456;BME280;64052;47.466;9.094;2023-02-28T00:25:42;95947.47;;;2.62;53.88
46456;BME280;64052;47.466;9.094;2023-02-28T00:30:44;95944.25;;;2.57;54.11
46456;BME280;64052;47.466;9.094;2023-02-28T00:35:45;95944.78;;;2.64;54.24
46456;BME280;64052;47.466;9.094;2023-02-28T00:40:47;95950.09;;;2.62;53.61
46456;BME280;64052;47.466;9.094;2023-02-28T00:45:48;95951.84;;;2.62;53.91
46456;BME280;64052;47.466;9.094;2023-02-28T00:50:50;95949.00;;;2.66;53.62
46456;BME280;64052;47.466;9.094;2023-02-28T00:55:51;95954.81;;;2.72;53.93
46456;BME280;64052;47.466;9.094;2023-02-28T01:00:53;95946.88;;;2.57;53.72
46456;BME280;64052;47.466;9.094;2023-02-28T01:05:55;95942.03;;;2.67;53.78
46456;BME280;64052;47.466;9.094;2023-02-28T01:10:56;95940.72;;;2.76;53.71
46456;BME280;64052;47.466;9.094;2023-02-28T01:15:58;95935.50;;;2.76;53.92
46456;BME280;64052;47.466;9.094;2023-02-28T01:21:07;95932.16;;;2.74;53.67
46456;BME280;64052;47.466;9.094;2023-02-28T01:26:11;95942.56;;;2.74;53.50
46456;BME280;64052;47.466;9.094;2023-02-28T01:31:14;95936.94;;;2.81;53.19
46456;BME280;64052;47.466;9.094;2023-02-28T01:36:21;95946.75;;;2.76;52.98
46456;BME280;64052;47.466;9.094;2023-02-28T01:41:26;95930.72;;;2.68;52.94
46456;BME280;64052;47.466;9.094;2023-02-28T01:46:34;95934.38;;;2.64;53.27
46456;BME280;64052;47.466;9.094;2023-02-28T01:51:49;95935.53;;;2.58;52.98
46456;BME280;64052;47.466;9.094;2023-02-28T01:56:58;95941.59;;;2.59;53.21
46456;BME280;64052;47.466;9.094;2023-02-28T02:02:02;95934.53;;;2.61;53.29
46456;BME280;64052;47.466;9.094;2023-02-28T02:07:04;95927.72;;;2.58;52.93
46456;BME280;64052;47.466;9.094;2023-02-28T02:12:21;95921.69;;;2.58;52.79
46456;BME280;64052;47.466;9.094;2023-02-28T02:17:35;95931.13;;;2.60;53.21
46456;BME280;64052;47.466;9.094;2023-02-28T02:23:02;95924.97;;;2.61;53.13
46456;BME280;64052;47.466;9.094;2023-02-28T02:40:03;95924.06;;;2.62;53.45
46456;BME280;64052;47.466;9.094;2023-02-28T02:44:42;95922.50;;;2.58;53.04
46456;BME280;64052;47.466;9.094;2023-02-28T02:49:57;95940.66;;;2.60;53.43
46456;BME280;64052;47.466;9.094;2023-02-28T02:55:02;95921.59;;;2.59;52.71
46456;BME280;64052;47.466;9.094;2023-02-28T03:00:06;95924.06;;;2.62;53.10
46456;BME280;64052;47.466;9.094;2023-02-28T03:05:14;95915.22;;;2.65;52.84
46456;BME280;64052;47.466;9.094;2023-02-28T03:10:46;95919.00;;;2.59;52.54
46456;BME280;64052;47.466;9.094;2023-02-28T03:21:21;95919.31;;;2.53;52.92
46456;BME280;64052;47.466;9.094;2023-02-28T03:26:34;95915.91;;;2.35;53.29
46456;BME280;64052;47.466;9.094;2023-02-28T03:31:39;95922.03;;;2.34;53.18
46456;BME280;64052;47.466;9.094;2023-02-28T03:36:47;95919.91;;;2.42;52.90
46456;BME280;64052;47.466;9.094;2023-02-28T03:41:56;95921.69;;;2.24;53.06
46456;BME280;64052;47.466;9.094;2023-02-28T03:47:25;95914.91;;;2.37;52.67
46456;BME280;64052;47.466;9.094;2023-02-28T03:52:28;95927.31;;;2.32;52.34
46456;BME280;64052;47.466;9.094;2023-02-28T03:57:38;95937.81;;;2.31;53.27
46456;BME280;64052;47.466;9.094;2023-02-28T04:02:41;95942.09;;;2.32;52.83
46456;BME280;64052;47.466;9.094;2023-02-28T04:07:42;95941.06;;;2.34;52.99
46456;BME280;64052;47.466;9.094;2023-02-28T04:12:44;95939.38;;;2.51;52.62
46456;BME280;64052;47.466;9.094;2023-02-28T04:17:45;95933.19;;;2.53;52.25
46456;BME280;64052;47.466;9.094;2023-02-28T04:22:47;95936.78;;;2.51;52.41
46456;BME280;64052;47.466;9.094;2023-02-28T04:27:48;95941.25;;;2.49;52.48
46456;BME280;64052;47.466;9.094;2023-02-28T04:32:50;95948.00;;;2.35;52.96
46456;BME280;64052;47.466;9.094;2023-02-28T04:37:52;95943.94;;;2.30;52.86
46456;BME280;64052;47.466;9.094;2023-02-28T04:42:53;95939.25;;;2.36;52.93
46456;BME280;64052;47.466;9.094;2023-02-28T04:47:55;95949.38;;;2.25;53.47
46456;BME280;64052;47.466;9.094;2023-02-28T04:52:56;95957.19;;;2.25;53.05
46456;BME280;64052;47.466;9.094;2023-02-28T04:57:58;95960.44;;;2.11;53.52
46456;BME280;64052;47.466;9.094;2023-02-28T05:02:59;95960.22;;;2.16;53.77
46456;BME280;64052;47.466;9.094;2023-02-28T05:08:01;95957.41;;;2.20;53.33
46456;BME280;64052;47.466;9.094;2023-02-28T05:13:02;95972.78;;;2.25;52.97
46456;BME280;64052;47.466;9.094;2023-02-28T05:18:04;95975.97;;;2.30;52.84
46456;BME280;64052;47.466;9.094;2023-02-28T05:23:06;95975.69;;;2.36;52.87
46456;BME280;64052;47.466;9.094;2023-02-28T05:28:07;95981.19;;;2.30;52.97
46456;BME280;64052;47.466;9.094;2023-02-28T05:33:11;95981.63;;;2.21;53.06
46456;BME280;64052;47.466;9.094;2023-02-28T05:38:12;95986.25;;;2.16;53.53
46456;BME280;64052;47.466;9.094;2023-02-28T05:43:14;95979.59;;;2.10;53.95
46456;BME280;64052;47.466;9.094;2023-02-28T05:48:15;95976.44;;;2.21;54.16
46456;BME280;64052;47.466;9.094;2023-02-28T05:53:17;95978.28;;;2.19;53.97
46456;BME280;64052;47.466;9.094;2023-02-28T05:58:18;95989.38;;;2.22;53.20
46456;BME280;64052;47.466;9.094;2023-02-28T06:03:20;95997.84;;;2.08;53.66
46456;BME280;64052;47.466;9.094;2023-02-28T06:08:22;96007.59;;;2.05;53.48
46456;BME280;64052;47.466;9.094;2023-02-28T06:13:23;96004.97;;;2.05;53.81
46456;BME280;64052;47.466;9.094;2023-02-28T06:18:24;96011.88;;;2.06;53.94
46456;BME280;64052;47.466;9.094;2023-02-28T06:23:26;96019.78;;;2.03;53.69
46456;BME280;64052;47.466;9.094;2023-02-28T06:28:27;96031.97;;;2.20;53.17
46456;BME280;64052;47.466;9.094;2023-02-28T06:33:29;96041.63;;;2.00;53.50
46456;BME280;64052;47.466;9.094;2023-02-28T06:38:31;96030.13;;;2.04;53.82
46456;BME280;64052;47.466;9.094;2023-02-28T06:43:37;96031.22;;;2.00;53.96
46456;BME280;64052;47.466;9.094;2023-02-28T06:48:40;96046.72;;;2.02;53.97
46456;BME280;64052;47.466;9.094;2023-02-28T06:53:42;96047.63;;;2.01;54.33
46456;BME280;64052;47.466;9.094;2023-02-28T06:58:48;96048.50;;;2.01;54.05
46456;BME280;64052;47.466;9.094;2023-02-28T07:03:50;96052.63;;;2.05;53.84
46456;BME280;64052;47.466;9.094;2023-02-28T07:08:54;96062.22;;;2.22;53.08
46456;BME280;64052;47.466;9.094;2023-02-28T07:13:56;96066.56;;;2.22;53.47
46456;BME280;64052;47.466;9.094;2023-02-28T07:18:57;96071.38;;;2.12;53.26
46456;BME280;64052;47.466;9.094;2023-02-28T07:23:59;96071.38;;;2.12;53.51
46456;BME280;64052;47.466;9.094;2023-02-28T07:29:01;96076.53;;;2.14;53.75
46456;BME280;64052;47.466;9.094;2023-02-28T07:34:02;96081.50;;;2.18;53.60
46456;BME280;64052;47.466;9.094;2023-02-28T07:39:04;96076.97;;;2.22;54.00
46456;BME280;64052;47.466;9.094;2023-02-28T07:44:05;96078.44;;;2.28;53.60
46456;BME280;64052;47.466;9.094;2023-02-28T07:49:07;96078.75;;;2.39;53.00
46456;BME280;64052;47.466;9.094;2023-02-28T07:54:08;96084.50;;;2.46;52.60
46456;BME280;64052;47.466;9.094;2023-02-28T07:59:10;96079.00;;;2.52;52.89
46456;BME280;64052;47.466;9.094;2023-02-28T08:49:01;96098.09;;;2.70;52.43
46456;BME280;64052;47.466;9.094;2023-02-28T08:54:02;96104.03;;;2.90;51.54
46456;BME280;64052;47.466;9.094;2023-02-28T08:59:04;96107.97;;;2.99;51.63
46456;BME280;64052;47.466;9.094;2023-02-28T09:04:05;96102.34;;;2.89;51.95
46456;BME280;64052;47.466;9.094;2023-02-28T09:09:07;96098.28;;;3.18;51.19
46456;BME280;64052;47.466;9.094;2023-02-28T09:14:08;96091.31;;;3.53;50.40
46456;BME280;64052;47.466;9.094;2023-02-28T09:19:11;96101.50;;;3.57;50.25
46456;BME280;64052;47.466;9.094;2023-02-28T09:24:13;96108.09;;;3.13;51.50
46456;BME280;64052;47.466;9.094;2023-02-28T09:29:14;96109.50;;;3.36;50.48
46456;BME280;64052;47.466;9.094;2023-02-28T09:34:15;96121.41;;;3.58;50.74
46456;BME280;64052;47.466;9.094;2023-02-28T09:39:17;96122.06;;;3.12;52.26
46456;BME280;64052;47.466;9.094;2023-02-28T09:44:31;96124.09;;;3.57;49.79
46456;BME280;64052;47.466;9.094;2023-02-28T09:49:39;96122.63;;;3.69;50.19
46456;BME280;64052;47.466;9.094;2023-02-28T09:54:42;96116.94;;;2.93;52.17
46456;BME280;64052;47.466;9.094;2023-02-28T10:04:59;96127.78;;;3.19;51.85
46456;BME280;64052;47.466;9.094;2023-02-28T10:10:04;96129.09;;;2.75;52.77
46456;BME280;64052;47.466;9.094;2023-02-28T10:15:13;96126.56;;;2.73;52.89
46456;BME280;64052;47.466;9.094;2023-02-28T10:20:22;96134.47;;;2.89;52.67
46456;BME280;64052;47.466;9.094;2023-02-28T10:25:26;96142.22;;;2.91;52.42
46456;BME280;64052;47.466;9.094;2023-02-28T10:30:28;96151.41;;;2.80;52.63
46456;BME280;64052;47.466;9.094;2023-02-28T10:35:29;96148.16;;;2.75;52.59
46456;BME280;64052;47.466;9.094;2023-02-28T10:40:33;96146.56;;;2.90;52.67
46456;BME280;64052;47.466;9.094;2023-02-28T10:45:35;96151.50;;;2.97;53.34
46456;BME280;64052;47.466;9.094;2023-02-28T10:56:16;96164.88;;;3.24;52.22
46456;BME280;64052;47.466;9.094;2023-02-28T11:01:41;96160.50;;;3.25;52.17
46456;BME280;64052;47.466;9.094;2023-02-28T11:06:41;96162.91;;;3.45;51.00
46456;BME280;64052;47.466;9.094;2023-02-28T11:11:45;96147.91;;;3.33;52.19
46456;BME280;64052;47.466;9.094;2023-02-28T11:16:48;96152.13;;;3.35;51.79
46456;BME280;64052;47.466;9.094;2023-02-28T11:22:01;96141.88;;;3.32;51.33
46456;BME280;64052;47.466;9.094;2023-02-28T11:27:03;96138.13;;;3.20;51.63
46456;BME280;64052;47.466;9.094;2023-02-28T11:32:12;96147.53;;;3.23;51.74
46456;BME280;64052;47.466;9.094;2023-02-28T11:37:17;96148.59;;;3.36;51.40
46456;BME280;64052;47.466;9.094;2023-02-28T11:59:13;96148.94;;;3.30;51.59
46456;BME280;64052;47.466;9.094;2023-02-28T12:04:26;96146.56;;;3.26;52.43
46456;BME280;64052;47.466;9.094;2023-02-28T12:25:41;96139.75;;;3.57;51.08
46456;BME280;64052;47.466;9.094;2023-02-28T12:31:22;96142.78;;;3.65;51.47
46456;BME280;64052;47.466;9.094;2023-02-28T12:36:25;96139.91;;;3.54;50.81
46456;BME280;64052;47.466;9.094;2023-02-28T12:46:37;96143.72;;;3.64;50.55
46456;BME280;64052;47.466;9.094;2023-02-28T12:51:41;96139.59;;;3.60;50.72
46456;BME280;64052;47.466;9.094;2023-02-28T12:57:22;96140.84;;;3.53;51.37
46456;BME280;64052;47.466;9.094;2023-02-28T13:07:58;96135.06;;;3.79;50.72
46456;BME280;64052;47.466;9.094;2023-02-28T13:13:05;96131.91;;;3.90;50.58
46456;BME280;64052;47.466;9.094;2023-02-28T13:23:41;96135.91;;;3.64;50.69
46456;BME280;64052;47.466;9.094;2023-02-28T13:34:14;96142.31;;;3.74;50.37
46456;BME280;64052;47.466;9.094;2023-02-28T13:39:57;96146.91;;;3.69;51.67
46456;BME280;64052;47.466;9.094;2023-02-28T13:55:37;96144.03;;;3.58;51.26
46456;BME280;64052;47.466;9.094;2023-02-28T14:11:34;96148.06;;;3.63;51.35
46456;BME280;64052;47.466;9.094;2023-02-28T14:16:41;96156.31;;;3.56;51.55
46456;BME280;64052;47.466;9.094;2023-02-28T14:22:33;96145.13;;;3.54;51.73
46456;BME280;64052;47.466;9.094;2023-02-28T14:27:31;96145.47;;;3.63;52.03
46456;BME280;64052;47.466;9.094;2023-02-28T14:32:46;96146.25;;;3.65;51.59
46456;BME280;64052;47.466;9.094;2023-02-28T14:37:51;96152.41;;;3.80;51.75
46456;BME280;64052;47.466;9.094;2023-02-28T14:42:57;96158.66;;;3.78;51.57
46456;BME280;64052;47.466;9.094;2023-02-28T14:48:01;96153.50;;;3.76;51.62
46456;BME280;64052;47.466;9.094;2023-02-28T14:53:06;96158.53;;;3.79;51.47
46456;BME280;64052;47.466;9.094;2023-02-28T15:03:37;96159.88;;;3.71;50.83
46456;BME280;64052;47.466;9.094;2023-02-28T15:08:39;96163.88;;;3.78;51.55
46456;BME280;64052;47.466;9.094;2023-02-28T15:13:44;96169.22;;;3.75;51.54
46456;BME280;64052;47.466;9.094;2023-02-28T15:18:53;96177.50;;;3.83;50.88
46456;BME280;64052;47.466;9.094;2023-02-28T15:24:02;96176.97;;;3.76;51.37
46456;BME280;64052;47.466;9.094;2023-02-28T15:29:10;96184.38;;;3.84;51.13
46456;BME280;64052;47.466;9.094;2023-02-28T15:34:22;96180.16;;;3.82;51.40
46456;BME280;64052;47.466;9.094;2023-02-28T15:39:42;96191.25;;;3.69;52.12
46456;BME280;64052;47.466;9.094;2023-02-28T15:44:45;96195.31;;;3.75;51.96
46456;BME280;64052;47.466;9.094;2023-02-28T15:49:52;96190.09;;;3.75;51.56
46456;BME280;64052;47.466;9.094;2023-02-28T15:54:54;96190.41;;;3.69;52.31
46456;BME280;64052;47.466;9.094;2023-02-28T15:59:58;96189.03;;;3.79;51.68
46456;BME280;64052;47.466;9.094;2023-02-28T16:10:13;96183.03;;;3.77;51.50
46456;BME280;64052;47.466;9.094;2023-02-28T16:15:26;96188.81;;;3.66;51.69
46456;BME280;64052;47.466;9.094;2023-02-28T16:20:30;96194.25;;;3.61;51.93
46456;BME280;64052;47.466;9.094;2023-02-28T16:25:37;96203.09;;;3.59;51.68
46456;BME280;64052;47.466;9.094;2023-02-28T16:30:39;96208.63;;;3.53;51.85
46456;BME280;64052;47.466;9.094;2023-02-28T16:35:41;96208.38;;;3.57;51.51
46456;BME280;64052;47.466;9.094;2023-02-28T16:40:42;96216.59;;;3.49;52.03
46456;BME280;64052;47.466;9.094;2023-02-28T16:45:45;96220.13;;;3.48;51.62
46456;BME280;64052;47.466;9.094;2023-02-28T16:50:46;96219.75;;;3.56;51.73
46456;BME280;64052;47.466;9.094;2023-02-28T16:55:48;96218.06;;;3.37;52.33
46456;BME280;64052;47.466;9.094;2023-02-28T17:00:49;96216.91;;;3.26;53.36
46456;BME280;64052;47.466;9.094;2023-02-28T17:05:51;96222.72;;;3.31;53.01
46456;BME280;64052;47.466;9.094;2023-02-28T17:10:52;96224.75;;;3.26;52.48
46456;BME280;64052;47.466;9.094;2023-02-28T17:15:54;96222.03;;;3.27;52.40
46456;BME280;64052;47.466;9.094;2023-02-28T17:20:59;96225.81;;;3.39;52.57
46456;BME280;64052;47.466;9.094;2023-02-28T17:26:00;96240.53;;;3.40;52.79
46456;BME280;64052;47.466;9.094;2023-02-28T17:31:02;96242.22;;;3.41;52.99
46456;BME280;64052;47.466;9.094;2023-02-28T17:36:04;96235.75;;;3.31;52.87
46456;BME280;64052;47.466;9.094;2023-02-28T17:41:05;96241.59;;;3.36;52.96
46456;BME280;64052;47.466;9.094;2023-02-28T17:46:18;96240.22;;;3.46;53.09
46456;BME280;64052;47.466;9.094;2023-02-28T17:51:22;96237.84;;;3.42;53.01
46456;BME280;64052;47.466;9.094;2023-02-28T17:56:25;96238.84;;;3.39;53.34
46456;BME280;64052;47.466;9.094;2023-02-28T18:01:27;96237.84;;;3.24;53.83
46456;BME280;64052;47.466;9.094;2023-02-28T18:06:38;96231.47;;;3.30;54.00
46456;BME280;64052;47.466;9.094;2023-02-28T18:11:40;96232.16;;;3.33;53.66
46456;BME280;64052;47.466;9.094;2023-02-28T18:16:42;96239.13;;;3.33;53.64
46456;BME280;64052;47.466;9.094;2023-02-28T18:21:46;96236.22;;;3.39;54.18
46456;BME280;64052;47.466;9.094;2023-02-28T18:48:24;96219.44;;;3.45;54.26
46456;BME280;64052;47.466;9.094;2023-02-28T18:53:25;96221.06;;;3.47;54.16
46456;BME280;64052;47.466;9.094;2023-02-28T18:58:27;96205.13;;;3.36;54.51
46456;BME280;64052;47.466;9.094;2023-02-28T19:03:29;96212.94;;;3.36;54.55
46456;BME280;64052;47.466;9.094;2023-02-28T19:08:30;96218.91;;;3.38;54.59
46456;BME280;64052;47.466;9.094;2023-02-28T19:13:32;96215.06;;;3.45;54.39
46456;BME280;64052;47.466;9.094;2023-02-28T19:18:34;96213.25;;;3.47;54.77
46456;BME280;64052;47.466;9.094;2023-02-28T19:23:37;96219.19;;;3.32;55.33
46456;BME280;64052;47.466;9.094;2023-02-28T19:28:39;96228.31;;;3.23;55.21
46456;BME280;64052;47.466;9.094;2023-02-28T19:33:41;96222.34;;;3.21;55.43
46456;BME280;64052;47.466;9.094;2023-02-28T19:38:42;96219.00;;;3.19;55.52
46456;BME280;64052;47.466;9.094;2023-02-28T19:43:45;96213.94;;;3.16;55.89
46456;BME280;64052;47.466;9.094;2023-02-28T19:48:46;96209.25;;;3.22;55.76
46456;BME280;64052;47.466;9.094;2023-02-28T19:53:48;96208.88;;;3.30;55.65
46456;BME280;64052;47.466;9.094;2023-02-28T19:58:49;96211.88;;;3.22;55.71
46456;BME280;64052;47.466;9.094;2023-02-28T20:03:51;96216.00;;;3.27;55.12
46456;BME280;64052;47.466;9.094;2023-02-28T20:08:53;96201.34;;;3.24;54.20
46456;BME280;64052;47.466;9.094;2023-02-28T20:13:54;96193.63;;;3.22;54.09
46456;BME280;64052;47.466;9.094;2023-02-28T20:18:56;96188.97;;;3.45;53.61
46456;BME280;64052;47.466;9.094;2023-02-28T20:23:58;96185.03;;;3.38;53.67
46456;BME280;64052;47.466;9.094;2023-02-28T20:28:59;96182.88;;;3.29;53.93
46456;BME280;64052;47.466;9.094;2023-02-28T20:34:01;96181.88;;;3.14;54.17
46456;BME280;64052;47.466;9.094;2023-02-28T20:39:03;96190.94;;;3.24;54.34
46456;BME280;64052;47.466;9.094;2023-02-28T20:44:04;96182.28;;;3.23;54.71
46456;BME280;64052;47.466;9.094;2023-02-28T20:49:06;96174.06;;;3.14;54.84
46456;BME280;64052;47.466;9.094;2023-02-28T20:54:08;96183.50;;;3.16;54.78
46456;BME280;64052;47.466;9.094;2023-02-28T20:59:11;96178.75;;;3.07;55.29
46456;BME280;64052;47.466;9.094;2023-02-28T21:36:44;96166.31;;;2.94;56.29
46456;BME280;64052;47.466;9.094;2023-02-28T21:41:46;96166.78;;;3.03;56.28
46456;BME280;64052;47.466;9.094;2023-02-28T21:46:50;96168.81;;;2.98;55.69
46456;BME280;64052;47.466;9.094;2023-02-28T21:57:16;96161.44;;;3.06;55.12
46456;BME280;64052;47.466;9.094;2023-02-28T22:02:18;96172.16;;;3.00;55.61
46456;BME280;64052;47.466;9.094;2023-02-28T22:12:43;96155.84;;;2.96;56.22
46456;BME280;64052;47.466;9.094;2023-02-28T22:17:44;96156.84;;;3.11;55.71
46456;BME280;64052;47.466;9.094;2023-02-28T22:22:46;96153.22;;;3.14;55.37
46456;BME280;64052;47.466;9.094;2023-02-28T22:27:47;96153.09;;;3.17;55.47
46456;BME280;64052;47.466;9.094;2023-02-28T22:32:49;96150.88;;;3.09;56.01
46456;BME280;64052;47.466;9.094;2023-02-28T22:37:50;96154.63;;;3.03;56.28
46456;BME280;64052;47.466;9.094;2023-02-28T22:42:52;96150.94;;;3.07;56.55
46456;BME280;64052;47.466;9.094;2023-02-28T22:47:53;96150.41;;;3.01;56.47
46456;BME280;64052;47.466;9.094;2023-02-28T22:52:55;96150.31;;;3.02;56.46
46456;BME280;64052;47.466;9.094;2023-02-28T22:57:56;96146.50;;;3.09;56.20
46456;BME280;64052;47.466;9.094;2023-02-28T23:02:58;96145.03;;;3.21;55.89
46456;BME280;64052;47.466;9.094;2023-02-28T23:08:00;96147.78;;;3.18;56.02
46456;BME280;64052;47.466;9.094;2023-02-28T23:13:01;96140.91;;;3.00;56.95
46456;BME280;64052;47.466;9.094;2023-02-28T23:18:03;96146.41;;;2.93;56.73
46456;BME280;64052;47.466;9.094;2023-02-28T23:23:04;96142.81;;;2.78;57.76
46456;BME280;64052;47.466;9.094;2023-02-28T23:28:07;96155.59;;;2.83;57.92
46456;BME280;64052;47.466;9.094;2023-02-28T23:33:08;96151.72;;;2.92;57.37
46456;BME280;64052;47.466;9.094;2023-02-28T23:38:10;96152.69;;;2.89;57.56
46456;BME280;64052;47.466;9.094;2023-02-28T23:43:11;96146.03;;;3.01;57.36
46456;BME280;64052;47.466;9.094;2023-02-28T23:48:13;96139.88;;;3.02;57.70
46456;BME280;64052;47.466;9.094;2023-02-28T23:53:14;96143.56;;;2.98;57.58
46456;BME280;64052;47.466;9.094;2023-02-28T23:58:16;96134.78;;;3.01;57.76
